createdAt,value
2018-11-03T00:00:19.176Z,134.00
2018-11-03T00:02:48.590Z,98.07
2018-11-03T00:05:18.100Z,96.17
2018-11-03T00:07:47.575Z,99.73
2018-11-03T00:10:17.019Z,102.50
2018-11-03T00:12:46.336Z,113.43
2018-11-03T00:15:15.937Z,108.47
2018-11-03T00:17:45.280Z,102.37
2018-11-03T00:20:14.463Z,97.43
2018-11-03T00:22:44.019Z,102.83
2018-11-03T00:25:13.476Z,98.57
2018-11-03T00:27:43.179Z,92.97
2018-11-03T00:30:13.474Z,99.80
2018-11-03T00:32:42.548Z,109.50
2018-11-03T00:35:12.212Z,87.93
2018-11-03T00:37:41.529Z,96.10
2018-11-03T00:40:12.567Z,98.30
2018-11-03T00:42:42.370Z,91.87
2018-11-03T00:45:12.567Z,82.93
2018-11-03T00:47:42.856Z,96.97
2018-11-03T00:50:14.200Z,96.70
2018-11-03T00:52:43.739Z,112.33
2018-11-03T00:55:13.596Z,98.13
2018-11-03T00:57:43.095Z,96.47
2018-11-03T01:00:13.808Z,98.20
2018-11-03T01:02:44.235Z,98.17
2018-11-03T01:05:13.807Z,93.30
2018-11-03T01:07:43.738Z,86.97
2018-11-03T01:10:13.274Z,91.73
2018-11-03T01:12:42.745Z,88.20
2018-11-03T01:15:17.391Z,76.47
2018-11-03T01:17:46.782Z,83.97
2018-11-03T01:20:17.173Z,88.47
2018-11-03T01:22:46.575Z,83.37
2018-11-03T01:25:15.865Z,96.67
2018-11-03T01:27:45.365Z,150.67
2018-11-03T01:30:16.807Z,96.87
2018-11-03T01:32:46.180Z,114.63
2018-11-03T01:35:15.509Z,90.63
2018-11-03T01:37:44.852Z,90.67
2018-11-03T01:40:14.477Z,90.97
2018-11-03T01:42:43.565Z,82.43
2018-11-03T01:45:13.099Z,74.60
2018-11-03T01:47:42.332Z,79.23
2018-11-03T01:50:12.481Z,82.93
2018-11-03T01:52:42.196Z,77.23
2018-11-03T01:55:11.536Z,82.70
2018-11-03T01:57:40.879Z,85.57
2018-11-03T02:00:10.592Z,75.27
2018-11-03T02:02:39.801Z,80.97
2018-11-03T02:05:09.905Z,72.67
2018-11-03T02:07:39.369Z,79.43
2018-11-03T02:10:09.540Z,77.30
2018-11-03T02:12:38.833Z,94.03
2018-11-03T02:15:08.650Z,80.73
2018-11-03T02:17:37.982Z,80.40
2018-11-03T02:20:08.020Z,64.93
2018-11-03T02:22:37.608Z,69.53
2018-11-03T02:25:06.957Z,66.53
2018-11-03T02:27:36.013Z,69.13
2018-11-03T02:30:05.737Z,72.23
2018-11-03T02:32:35.025Z,76.40
2018-11-03T02:35:04.111Z,69.83
2018-11-03T02:37:33.455Z,66.03
2018-11-03T02:40:02.854Z,67.73
2018-11-03T02:42:32.460Z,122.33
2018-11-03T02:45:02.260Z,65.20
2018-11-03T02:47:31.273Z,68.50
2018-11-03T02:50:00.524Z,68.93
2018-11-03T02:52:29.849Z,71.53
2018-11-03T02:54:58.961Z,75.30
2018-11-03T02:57:28.474Z,73.73
2018-11-03T02:59:57.816Z,78.60
2018-11-03T03:02:26.852Z,71.90
2018-11-03T03:04:56.213Z,76.63
2018-11-03T03:07:25.463Z,77.00
2018-11-03T03:09:55.009Z,77.83
2018-11-03T03:12:24.070Z,74.03
2018-11-03T03:14:53.852Z,70.67
2018-11-03T03:17:23.306Z,79.87
2018-11-03T03:19:52.759Z,76.33
2018-11-03T03:22:22.049Z,76.10
2018-11-03T03:24:51.360Z,117.27
2018-11-03T03:27:20.668Z,75.27
2018-11-03T03:29:49.956Z,76.37
2018-11-03T03:32:19.270Z,71.23
2018-11-03T03:34:48.576Z,69.47
2018-11-03T03:37:17.793Z,65.13
2018-11-03T03:39:47.265Z,63.50
2018-11-03T03:42:16.368Z,59.27
2018-11-03T03:44:45.791Z,52.13
2018-11-03T03:47:15.026Z,63.10
2018-11-03T03:49:44.291Z,68.77
2018-11-03T03:52:13.680Z,64.13
2018-11-03T03:54:42.920Z,62.33
2018-11-03T03:57:12.233Z,56.73
2018-11-03T03:59:41.611Z,71.20
2018-11-03T04:02:10.868Z,68.17
2018-11-03T04:04:40.145Z,66.13
2018-11-03T04:07:09.442Z,61.17
2018-11-03T04:09:39.067Z,63.03
2018-11-03T04:12:08.361Z,59.40
2018-11-03T04:14:37.877Z,66.63
2018-11-03T04:17:07.321Z,62.43
2018-11-03T04:19:37.141Z,71.07
2018-11-03T04:22:06.530Z,62.57
2018-11-03T04:24:35.989Z,64.23
2018-11-03T04:27:05.628Z,60.20
2018-11-03T04:29:34.938Z,55.13
2018-11-03T04:32:03.965Z,56.03
2018-11-03T04:34:33.236Z,62.87
2018-11-03T04:37:02.605Z,59.80
2018-11-03T04:39:31.989Z,54.77
2018-11-03T04:42:01.378Z,58.07
2018-11-03T04:44:30.609Z,51.93
2018-11-03T04:46:59.993Z,48.50
2018-11-03T04:49:29.228Z,56.47
2018-11-03T04:51:58.573Z,53.40
2018-11-03T04:54:27.575Z,50.57
2018-11-03T04:56:56.934Z,47.67
2018-11-03T04:59:26.191Z,50.03
2018-11-03T05:01:55.474Z,50.70
2018-11-03T05:04:24.833Z,50.10
2018-11-03T05:06:53.953Z,47.53
2018-11-03T05:09:23.292Z,55.53
2018-11-03T05:11:52.785Z,165.77
2018-11-03T05:14:22.120Z,67.97
2018-11-03T05:16:51.622Z,63.37
2018-11-03T05:19:21.344Z,66.10
2018-11-03T05:21:50.589Z,60.90
2018-11-03T05:24:20.304Z,61.30
2018-11-03T05:26:50.093Z,61.33
2018-11-03T05:29:19.212Z,72.83
2018-11-03T05:31:48.493Z,62.30
2018-11-03T05:34:17.711Z,56.33
2018-11-03T05:36:47.529Z,55.27
2018-11-03T05:39:16.645Z,65.47
2018-11-03T05:41:45.972Z,62.03
2018-11-03T05:44:15.468Z,66.00
2018-11-03T05:46:44.971Z,68.65
2018-11-03T05:49:14.376Z,78.97
2018-11-03T05:51:43.510Z,149.80
2018-11-03T05:54:12.824Z,125.67
2018-11-03T05:56:41.953Z,125.50
2018-11-03T05:59:11.512Z,128.07
2018-11-03T06:01:40.917Z,120.60
2018-11-03T06:04:10.150Z,120.87
2018-11-03T06:06:39.543Z,122.50
2018-11-03T06:09:09.784Z,125.23
2018-11-03T06:11:38.882Z,128.57
2018-11-03T06:14:08.237Z,123.70
2018-11-03T06:16:37.633Z,123.23
2018-11-03T06:19:06.541Z,108.03
2018-11-03T06:21:35.658Z,95.57
2018-11-03T06:24:05.239Z,95.03
2018-11-03T06:26:34.768Z,97.47
2018-11-03T06:29:04.239Z,78.03
2018-11-03T06:31:33.635Z,82.37
2018-11-03T06:34:03.060Z,89.53
2018-11-03T06:36:32.325Z,73.43
2018-11-03T06:39:01.867Z,67.17
2018-11-03T06:41:31.104Z,69.37
2018-11-03T06:44:00.733Z,73.00
2018-11-03T06:46:29.985Z,66.50
2018-11-03T06:49:04.581Z,66.07
2018-11-03T06:51:33.956Z,61.03
2018-11-03T06:54:03.761Z,58.67
2018-11-03T06:56:34.369Z,53.07
2018-11-03T06:59:03.912Z,47.73
2018-11-03T07:01:33.204Z,50.20
2018-11-03T07:04:02.765Z,46.97
2018-11-03T07:06:32.185Z,50.97
2018-11-03T07:09:01.299Z,56.27
2018-11-03T07:11:31.107Z,56.33
2018-11-03T07:14:00.621Z,61.80
2018-11-03T07:16:31.082Z,59.27
2018-11-03T07:19:00.626Z,54.67
2018-11-03T07:21:29.943Z,53.83
2018-11-03T07:23:59.290Z,49.10
2018-11-03T07:26:28.431Z,40.97
2018-11-03T07:28:57.753Z,58.33
2018-11-03T07:31:27.193Z,50.47
2018-11-03T07:33:56.797Z,49.63
2018-11-03T07:36:26.300Z,44.87
2018-11-03T07:38:55.849Z,36.37
2018-11-03T07:41:25.221Z,36.80
2018-11-03T07:43:54.257Z,42.00
2018-11-03T07:46:24.240Z,45.93
2018-11-03T07:48:53.842Z,48.50
2018-11-03T07:51:23.195Z,45.50
2018-11-03T07:53:52.474Z,38.17
2018-11-03T07:56:21.631Z,31.97
2018-11-03T07:58:51.146Z,32.20
2018-11-03T08:01:20.721Z,29.90
2018-11-03T08:03:50.309Z,28.53
2018-11-03T08:06:19.949Z,30.27
2018-11-03T08:08:49.308Z,27.40
2018-11-03T08:11:18.398Z,27.30
2018-11-03T08:13:48.129Z,28.07
2018-11-03T08:16:17.409Z,31.10
2018-11-03T08:18:46.898Z,35.33
2018-11-03T08:21:16.062Z,37.77
2018-11-03T08:23:45.688Z,33.57
2018-11-03T08:26:15.162Z,36.40
2018-11-03T08:28:44.609Z,35.67
2018-11-03T08:31:13.836Z,40.93
2018-11-03T08:33:43.209Z,34.90
2018-11-03T08:36:12.435Z,27.87
2018-11-03T08:38:41.914Z,24.70
2018-11-03T08:41:11.550Z,31.23
2018-11-03T08:43:40.885Z,29.10
2018-11-03T08:46:10.814Z,28.77
2018-11-03T08:48:40.020Z,25.83
2018-11-03T08:51:09.412Z,21.43
2018-11-03T08:53:38.635Z,25.87
2018-11-03T08:56:08.112Z,71.23
2018-11-03T08:58:37.708Z,38.63
2018-11-03T09:01:06.922Z,44.47
2018-11-03T09:03:36.094Z,37.03
2018-11-03T09:06:05.553Z,49.20
2018-11-03T09:08:34.824Z,53.40
2018-11-03T09:11:03.982Z,53.63
2018-11-03T09:13:33.138Z,60.20
2018-11-03T09:16:02.726Z,63.13
2018-11-03T09:18:32.333Z,56.63
2018-11-03T09:21:01.655Z,58.67
2018-11-03T09:23:30.796Z,58.93
2018-11-03T09:26:00.080Z,60.57
2018-11-03T09:28:29.209Z,65.10
2018-11-03T09:30:59.007Z,63.63
2018-11-03T09:33:28.317Z,55.33
2018-11-03T09:35:57.526Z,56.90
2018-11-03T09:38:27.549Z,56.87
2018-11-03T09:40:56.853Z,60.87
2018-11-03T09:43:25.951Z,55.80
2018-11-03T09:45:55.246Z,56.90
2018-11-03T09:48:25.564Z,56.50
2018-11-03T09:50:54.787Z,61.27
2018-11-03T09:53:24.164Z,58.13
2018-11-03T09:55:53.517Z,59.23
2018-11-03T09:58:23.388Z,200.80
2018-11-03T10:00:52.803Z,113.40
2018-11-03T10:03:22.576Z,146.47
2018-11-03T10:05:52.069Z,209.57
2018-11-03T10:08:21.673Z,67.23
2018-11-03T10:10:50.837Z,79.63
2018-11-03T10:13:20.235Z,60.73
2018-11-03T10:15:49.361Z,89.17
2018-11-03T10:18:18.640Z,113.43
2018-11-03T10:20:48.099Z,84.27
2018-11-03T10:23:17.218Z,54.00
2018-11-03T10:25:46.644Z,65.93
2018-11-03T10:28:16.016Z,106.93
2018-11-03T10:30:45.132Z,78.63
2018-11-03T10:33:14.779Z,168.80
2018-11-03T10:35:44.869Z,83.13
2018-11-03T10:38:14.169Z,63.90
2018-11-03T10:40:43.571Z,74.40
2018-11-03T10:43:13.061Z,158.50
2018-11-03T10:45:42.167Z,186.03
2018-11-03T10:48:11.483Z,105.50
2018-11-03T10:50:41.198Z,79.27
2018-11-03T10:53:10.302Z,57.97
2018-11-03T10:55:39.983Z,48.33
2018-11-03T10:58:09.171Z,60.00
2018-11-03T11:00:43.381Z,83.50
2018-11-03T11:03:18.437Z,99.30
2018-11-03T11:07:59.580Z,47.90
2018-11-03T11:10:34.298Z,35.33
2018-11-03T11:13:11.199Z,62.70
2018-11-03T11:15:40.291Z,61.53
2018-11-03T11:18:09.784Z,36.03
2018-11-03T11:20:38.944Z,40.43
2018-11-03T11:23:08.310Z,47.10
2018-11-03T11:25:37.815Z,52.47
2018-11-03T11:28:07.212Z,82.00
2018-11-03T11:30:38.564Z,63.13
2018-11-03T11:33:09.708Z,43.13
2018-11-03T11:35:38.932Z,49.03
2018-11-03T11:38:09.314Z,47.70
2018-11-03T11:40:38.812Z,83.97
2018-11-03T11:43:08.901Z,36.87
2018-11-03T11:45:38.275Z,43.90
2018-11-03T11:48:07.509Z,48.43
2018-11-03T11:50:37.767Z,47.93
2018-11-03T11:53:06.964Z,56.47
2018-11-03T11:55:37.318Z,77.73
2018-11-03T11:58:06.574Z,35.17
2018-11-03T12:00:35.864Z,37.80
2018-11-03T12:03:05.032Z,182.27
2018-11-03T12:05:34.657Z,151.00
2018-11-03T12:08:04.188Z,98.43
2018-11-03T12:10:35.003Z,66.53
2018-11-03T12:13:04.331Z,82.60
2018-11-03T12:15:33.444Z,55.17
2018-11-03T12:18:02.961Z,63.37
2018-11-03T12:20:32.136Z,87.60
2018-11-03T12:23:04.745Z,40.13
2018-11-03T12:25:34.323Z,37.80
2018-11-03T12:28:03.810Z,38.70
2018-11-03T12:30:37.061Z,40.17
2018-11-03T12:33:06.360Z,78.83
2018-11-03T12:35:36.576Z,87.27
2018-11-03T12:38:06.235Z,69.33
2018-11-03T12:40:37.058Z,46.63
2018-11-03T12:43:09.084Z,54.87
2018-11-03T12:45:42.147Z,50.90
2018-11-03T12:48:19.535Z,47.20
2018-11-03T12:51:00.015Z,34.47
2018-11-03T12:53:33.561Z,31.07
2018-11-03T12:56:16.148Z,50.27
2018-11-03T12:58:59.883Z,80.80
2018-11-03T13:01:36.157Z,53.67
2018-11-03T13:04:25.059Z,158.07
2018-11-03T13:07:10.864Z,114.07
2018-11-03T13:09:52.396Z,99.40
2018-11-03T13:12:23.813Z,78.37
2018-11-03T13:14:58.852Z,160.90
2018-11-03T13:17:28.089Z,185.17
2018-11-03T13:19:59.878Z,185.73
2018-11-03T13:22:34.676Z,196.07
2018-11-03T13:25:06.881Z,118.70
2018-11-03T13:27:36.612Z,53.77
2018-11-03T13:30:06.533Z,38.63
2018-11-03T13:32:37.821Z,39.97
2018-11-03T13:35:07.999Z,42.40
2018-11-03T13:37:37.308Z,38.30
2018-11-03T13:40:07.114Z,77.73
2018-11-03T13:42:36.301Z,57.47
2018-11-03T13:45:06.237Z,57.27
2018-11-03T13:47:35.880Z,51.63
2018-11-03T13:50:10.068Z,59.93
2018-11-03T13:52:39.669Z,90.07
2018-11-03T13:55:10.542Z,59.00
2018-11-03T13:57:40.599Z,126.27
2018-11-03T14:00:28.023Z,109.27
2018-11-03T14:05:44.479Z,131.50
2018-11-03T14:08:20.801Z,78.40
2018-11-03T14:10:50.409Z,80.30
2018-11-03T14:13:19.676Z,58.30
2018-11-03T14:15:50.130Z,59.03
2018-11-03T14:18:19.784Z,56.77
2018-11-03T14:20:49.257Z,51.30
2018-11-03T14:23:18.943Z,42.87
2018-11-03T14:25:48.096Z,51.60
2018-11-03T14:28:17.300Z,63.17
2018-11-03T14:30:46.784Z,54.93
2018-11-03T14:33:15.961Z,52.90
2018-11-03T14:35:51.504Z,52.03
2018-11-03T14:38:21.526Z,55.37
2018-11-03T14:40:54.512Z,49.60
2018-11-03T14:43:23.908Z,68.67
2018-11-03T14:45:57.970Z,55.80
2018-11-03T14:48:30.506Z,44.90
2018-11-03T14:51:06.434Z,44.57
2018-11-03T14:53:42.534Z,50.27
2018-11-03T14:56:16.095Z,44.87
2018-11-03T14:58:52.018Z,45.37
2018-11-03T15:01:23.607Z,49.63
2018-11-03T15:03:55.937Z,201.63
2018-11-03T15:06:29.548Z,119.90
2018-11-03T15:08:59.081Z,65.40
2018-11-03T15:11:28.637Z,122.67
2018-11-03T15:13:58.365Z,178.50
2018-11-03T15:16:27.841Z,86.43
2018-11-03T15:18:57.853Z,107.70
2018-11-03T15:21:28.993Z,147.70
2018-11-03T15:23:58.545Z,169.53
2018-11-03T15:26:28.629Z,140.37
2018-11-03T15:28:58.493Z,158.97
2018-11-03T15:31:28.022Z,154.33
2018-11-03T15:33:57.694Z,96.13
2018-11-03T15:36:27.233Z,92.03
2018-11-03T15:38:56.705Z,78.33
2018-11-03T15:41:26.019Z,47.87
2018-11-03T15:43:55.345Z,48.37
2018-11-03T15:46:24.683Z,59.40
2018-11-03T15:48:54.082Z,68.37
2018-11-03T15:51:23.424Z,156.17
2018-11-03T15:53:52.640Z,134.47
2018-11-03T15:56:21.815Z,113.33
2018-11-03T15:58:52.270Z,106.47
2018-11-03T16:01:21.926Z,102.47
2018-11-03T16:03:51.186Z,91.73
2018-11-03T16:06:20.360Z,92.77
2018-11-03T16:08:49.766Z,90.93
2018-11-03T16:11:19.297Z,91.33
2018-11-03T16:13:48.538Z,96.23
2018-11-03T16:16:17.604Z,113.67
2018-11-03T16:18:48.666Z,92.07
2018-11-03T16:21:18.234Z,127.70
2018-11-03T16:23:48.169Z,110.83
2018-11-03T16:26:17.444Z,125.80
2018-11-03T16:28:47.129Z,116.03
2018-11-03T16:31:17.536Z,107.20
2018-11-03T16:33:46.937Z,85.73
2018-11-03T16:36:16.413Z,101.40
2018-11-03T16:38:46.435Z,102.70
2018-11-03T16:41:15.683Z,100.53
2018-11-03T16:43:45.329Z,110.53
2018-11-03T16:46:15.026Z,131.53
2018-11-03T16:48:44.203Z,137.20
2018-11-03T16:51:14.213Z,146.20
2018-11-03T16:53:43.546Z,106.83
2018-11-03T16:56:13.023Z,129.57
2018-11-03T16:58:42.400Z,140.10
2018-11-03T17:01:11.876Z,131.70
2018-11-03T17:03:41.677Z,153.97
2018-11-03T17:06:11.293Z,146.77
2018-11-03T17:08:42.995Z,165.57
2018-11-03T17:11:12.359Z,106.40
2018-11-03T17:13:46.874Z,152.40
2018-11-03T17:16:16.184Z,125.03
2018-11-03T17:18:45.635Z,103.13
2018-11-03T17:21:14.794Z,108.10
2018-11-03T17:23:44.146Z,102.17
2018-11-03T17:26:13.723Z,119.27
2018-11-03T17:28:43.501Z,140.10
2018-11-03T17:31:13.032Z,138.10
2018-11-03T17:33:42.552Z,119.43
2018-11-03T17:36:12.656Z,112.70
2018-11-03T17:38:43.355Z,111.33
2018-11-03T17:41:12.595Z,112.13
2018-11-03T17:43:41.880Z,135.23
2018-11-03T17:46:11.074Z,309.30
2018-11-03T17:48:40.333Z,276.10
2018-11-03T17:51:09.725Z,136.00
2018-11-03T17:53:39.115Z,88.23
2018-11-03T17:56:08.380Z,127.33
2018-11-03T17:58:37.680Z,77.27
2018-11-03T18:01:07.128Z,131.43
2018-11-03T18:03:36.285Z,83.57
2018-11-03T18:06:05.637Z,64.80
2018-11-03T18:08:34.822Z,60.37
2018-11-03T18:11:04.417Z,58.90
2018-11-03T18:13:34.008Z,73.33
2018-11-03T18:16:03.899Z,103.27
2018-11-03T18:18:33.144Z,86.17
2018-11-03T18:21:02.340Z,94.60
2018-11-03T18:23:32.101Z,84.00
2018-11-03T18:26:01.474Z,85.90
2018-11-03T18:28:30.971Z,121.40
2018-11-03T18:31:00.425Z,124.43
2018-11-03T18:33:29.814Z,144.83
2018-11-03T18:35:59.150Z,164.87
2018-11-03T18:38:28.758Z,109.77
2018-11-03T18:40:58.246Z,127.27
2018-11-03T18:43:27.738Z,114.30
2018-11-03T18:45:57.025Z,95.67
2018-11-03T18:48:26.178Z,75.07
2018-11-03T18:50:56.012Z,80.17
2018-11-03T18:53:25.404Z,73.60
2018-11-03T18:55:54.676Z,66.77
2018-11-03T18:58:24.156Z,119.23
2018-11-03T19:00:53.329Z,128.67
2018-11-03T19:03:23.086Z,142.57
2018-11-03T19:05:52.293Z,132.93
2018-11-03T19:08:21.783Z,78.43
2018-11-03T19:10:51.038Z,76.87
2018-11-03T19:13:20.456Z,81.00
2018-11-03T19:15:50.221Z,130.77
2018-11-03T19:18:19.485Z,70.60
2018-11-03T19:20:49.090Z,77.13
2018-11-03T19:23:18.711Z,80.27
2018-11-03T19:25:48.028Z,67.83
2018-11-03T19:28:17.624Z,65.10
2018-11-03T19:30:48.455Z,80.80
2018-11-03T19:33:17.768Z,97.07
2018-11-03T19:35:47.558Z,132.53
2018-11-03T19:38:17.365Z,195.37
2018-11-03T19:40:46.784Z,152.90
2018-11-03T19:43:16.074Z,148.03
2018-11-03T19:45:45.322Z,117.13
2018-11-03T19:48:14.967Z,648.00
2018-11-03T19:50:45.831Z,253.97
2018-11-03T19:53:15.060Z,189.27
2018-11-03T19:55:45.084Z,136.43
2018-11-03T19:58:15.660Z,96.90
2018-11-03T20:00:45.448Z,93.80
2018-11-03T20:03:14.930Z,86.67
2018-11-03T20:05:44.301Z,74.07
2018-11-03T20:08:13.780Z,67.63
2018-11-03T20:10:43.154Z,79.17
2018-11-03T20:13:12.436Z,62.33
2018-11-03T20:15:41.665Z,61.77
2018-11-03T20:18:11.110Z,67.23
2018-11-03T20:20:40.468Z,63.87
2018-11-03T20:23:10.101Z,54.30
2018-11-03T20:25:40.408Z,75.10
2018-11-03T20:28:10.569Z,64.93
2018-11-03T20:30:40.930Z,70.43
2018-11-03T20:33:13.347Z,68.23
2018-11-03T20:35:45.330Z,83.17
2018-11-03T20:38:15.420Z,72.27
2018-11-03T20:40:45.855Z,93.60
2018-11-03T20:43:15.185Z,90.17
2018-11-03T20:45:44.747Z,80.63
2018-11-03T20:48:14.573Z,84.37
2018-11-03T20:50:44.958Z,100.97
2018-11-03T20:53:15.280Z,106.97
2018-11-03T20:55:45.070Z,84.30
2018-11-03T20:58:14.203Z,82.87
2018-11-03T21:00:43.609Z,72.07
2018-11-03T21:03:12.841Z,73.13
2018-11-03T21:05:42.128Z,88.73
2018-11-03T21:08:11.876Z,101.83
2018-11-03T21:10:41.195Z,88.00
2018-11-03T21:13:11.161Z,82.83
2018-11-03T21:15:40.870Z,86.80
2018-11-03T21:18:10.438Z,87.33
2018-11-03T21:20:39.866Z,89.63
2018-11-03T21:23:09.476Z,74.80
2018-11-03T21:25:38.995Z,61.83
2018-11-03T21:28:08.448Z,75.17
2018-11-03T21:30:37.715Z,68.53
2018-11-03T21:33:07.395Z,81.20
2018-11-03T21:35:36.418Z,73.00
2018-11-03T21:38:05.776Z,66.13
2018-11-03T21:40:35.417Z,119.90
2018-11-03T21:43:04.942Z,78.57
2018-11-03T21:45:34.196Z,89.50
2018-11-03T21:48:03.477Z,81.57
2018-11-03T21:50:32.793Z,59.77
2018-11-03T21:53:02.388Z,52.87
2018-11-03T21:55:31.539Z,51.40
2018-11-03T21:58:00.969Z,51.70
2018-11-03T22:00:30.742Z,51.63
2018-11-03T22:02:59.857Z,60.13
2018-11-03T22:05:29.230Z,55.03
2018-11-03T22:07:58.692Z,60.57
2018-11-03T22:10:27.918Z,64.27
2018-11-03T22:12:57.172Z,66.93
2018-11-03T22:15:26.343Z,61.50
2018-11-03T22:17:56.165Z,62.27
2018-11-03T22:20:25.784Z,60.83
2018-11-03T22:22:55.152Z,69.03
2018-11-03T22:25:25.109Z,71.90
2018-11-03T22:27:54.675Z,73.43
2018-11-03T22:30:23.709Z,70.03
2018-11-03T22:32:53.245Z,86.50
2018-11-03T22:35:22.641Z,88.27
2018-11-03T22:37:52.140Z,65.73
2018-11-03T22:40:21.601Z,71.83
2018-11-03T22:42:51.096Z,72.63
2018-11-03T22:45:20.901Z,66.60
2018-11-03T22:47:50.329Z,59.00
2018-11-03T22:50:19.672Z,84.00
2018-11-03T22:52:49.160Z,54.20
2018-11-03T22:55:18.532Z,67.90
2018-11-03T22:57:47.889Z,48.30
2018-11-03T23:00:17.274Z,47.67
2018-11-03T23:02:46.572Z,47.93
2018-11-03T23:05:15.931Z,47.23
2018-11-03T23:07:45.282Z,49.87
2018-11-03T23:10:14.664Z,51.57
2018-11-03T23:12:44.254Z,64.90
2018-11-03T23:15:13.597Z,59.23
2018-11-03T23:17:42.757Z,58.97
2018-11-03T23:20:13.359Z,55.47
2018-11-03T23:22:42.644Z,55.27
2018-11-03T23:25:11.977Z,51.80
2018-11-03T23:27:41.212Z,57.13
2018-11-03T23:30:11.763Z,50.73
2018-11-03T23:32:41.122Z,46.30
2018-11-03T23:35:11.855Z,42.13
2018-11-03T23:37:42.155Z,51.43
2018-11-03T23:40:11.705Z,45.60
2018-11-03T23:42:40.917Z,45.80
2018-11-03T23:45:10.808Z,42.37
2018-11-03T23:47:40.384Z,55.27
2018-11-03T23:50:11.346Z,56.30
2018-11-03T23:52:47.603Z,49.03
2018-11-03T23:55:16.962Z,42.27
2018-11-03T23:57:46.469Z,36.83
